Tropical Cyclones
[Index]
Main Index Home Page Stock Weather Photos Extreme Storms Discussion Storm News and Storm Chasing Reports Tropical Cyclones / Hurricanes / Typhoons Weather Data and Links Wild Fires / Bushfires Weather Observation Techniques Weather Picture Catalogue Tornado Pictures and Reports Stock Video Footage and DVDs for sale
Season 1956-1957 Tropical Cyclone 195657_14 Track Map
Season 1956-1957 Summaries: [BoM-AU] [JTWC-AU] [JTWC-SIO] [JTWC-SPAC] [JTWC-SH]
<<- Previous TC | BoM 1956-1957 Season | Next TC ->>

click for intensity scale information  Lat/long Grid: Show Hide

 Date Labels: Show Hide

Bureau of Meteorology Tropical Cyclone Data

Name: 195657_14
Number: 288 / 195657_14

31 Jan 1957 23:00 UTC to 19 Feb 1957 05:00 UTC

    date/time    lat    long    hPa   cat  kts
1957-01-31 23   12.2   140.2   1005                     
1957-02-01 05   12.6   140.9   1002                     
1957-02-01 20   14.1   143.8   1001                     
1957-02-01 23   14.4   144.4   1001                     
1957-02-02 08   15.1   145.3   1001                     
1957-02-02 23   15.4   146.9   1001                     
1957-02-03 23   15.8   148.6   1000                     
1957-02-04 23   16.0   149.4    999                     
1957-02-05 11   16.2   149.7    980    2                
1957-02-05 17   16.2   149.9    960    3                
1957-02-05 20   16.3   150.3    960    3                
1957-02-05 23   17.0   151.4    960    3                
1957-02-06 05   17.2   152.0    960    3                
1957-02-06 23   18.2   151.6    960    3                
1957-02-07 11   17.4   151.0    960    3                
1957-02-07 20   16.8   150.6    958    3                
1957-02-07 23   16.5   150.3    953    4                
1957-02-08 02   16.2   150.1    953    4                
1957-02-08 05   16.0   150.1    953    4                
1957-02-08 23   15.1   150.3    953    4                
1957-02-09 05   14.8   150.4    953    4                
1957-02-09 23   15.8   150.8    953    4                
1957-02-10 11   16.0   151.5    955    4                
1957-02-10 23   16.8   152.5                            
1957-02-11 11   17.1   153.2    960    3                
1957-02-11 23   17.4   153.9    960    3                
1957-02-12 23   16.8   155.2    960    3                
1957-02-13 23   17.4   157.0    960    3                
1957-02-14 23   18.5   159.2    960    3                
1957-02-15 05   18.9   160.0    960    3                
1957-02-15 11   20.3   160.6    960    3                
1957-02-15 23   21.7   160.4    960    3                
1957-02-16 11   23.5   160.0    960    3                
1957-02-16 23   25.8   159.5    960    3                
1957-02-17 11   28.5   159.3    960    3                
1957-02-17 23   31.2   157.0    972    2                
1957-02-18 05   32.0   156.0    976    2                
1957-02-18 11   32.2   155.3    980    2                
1957-02-18 23   32.0   153.0    990    1                
1957-02-19 02   32.0   152.6                            
1957-02-19 05   32.0   152.0    994    1                
Winds are 10-min average.

Tropical cyclone tracks developed by Michael Bath using data from the Bureau of Meteorology and Google Maps.


[Australian Severe Weather index] [Copyright Notice] [Email Contacts] [Search This Site] [Privacy Policy]
Document: tropical_cyclone_195657_14.htm Updated: 30 May 2013